Time;durP1;ratioP1;P1;durP2;ratioP2;P2;SDS_P1;SDS_P2;PMS_P1;PMS_P2;Temp;Humidity;BMP_temperature;BMP_pressure;BME280_temperature;BME280_humidity;BME280_pressure;Samples;Min_cycle;Max_cycle;Signal;HPM_P1;HPM_P2
2021/10/28 00:12:13;;;;;;;6.30;4.53;;;6.80;99.90;6.60;101364.00;;;;4938332;28;88292;-69
2021/10/28 00:13:01;;;;;;;9.63;5.07;;;6.70;99.90;6.50;101357.00;;;;4936673;28;87920;-68
2021/10/28 00:15:31;;;;;;;9.20;6.70;;;6.70;99.90;6.60;101374.00;;;;4937500;28;87434;-69
2021/10/28 00:20:34;;;;;;;8.27;5.93;;;6.70;99.90;6.50;101364.00;;;;4935044;28;87622;-69
2021/10/28 00:23:00;;;;;;;7.47;5.77;;;6.70;99.90;6.50;101368.00;;;;4934740;28;88856;-68
2021/10/28 00:25:26;;;;;;;9.77;5.63;;;6.70;99.90;6.50;101361.00;;;;4937290;28;88102;-68
2021/10/28 00:27:52;;;;;;;8.60;5.17;;;6.60;99.90;6.50;101364.00;;;;4936269;28;117486;-69
2021/10/28 00:30:19;;;;;;;10.53;4.73;;;6.60;99.90;6.40;101358.00;;;;4937469;28;87804;-69
2021/10/28 00:32:45;;;;;;;7.47;5.00;;;6.60;99.90;6.40;101359.00;;;;4936779;28;88866;-69
2021/10/28 00:35:13;;;;;;;8.60;5.97;;;6.60;99.90;6.40;101356.00;;;;4951138;28;98681;-69
2021/10/28 00:37:39;;;;;;;8.07;5.57;;;6.50;99.90;6.30;101350.00;;;;4937256;28;87871;-69
2021/10/28 00:40:07;;;;;;;7.60;5.13;;;6.50;99.90;6.30;101344.00;;;;4937152;28;87034;-69
2021/10/28 00:42:35;;;;;;;7.20;5.30;;;6.50;99.90;6.30;101349.00;;;;4936923;28;87783;-69
2021/10/28 00:45:01;;;;;;;7.70;5.70;;;6.50;99.90;6.20;101346.00;;;;4937117;28;88394;-70
2021/10/28 00:47:29;;;;;;;9.17;4.87;;;6.50;99.90;6.20;101349.00;;;;4936431;28;88669;-70
2021/10/28 00:49:55;;;;;;;7.87;5.20;;;6.40;99.90;6.10;101347.00;;;;4936784;28;87736;-69
2021/10/28 00:52:21;;;;;;;6.60;4.90;;;6.30;99.90;6.10;101344.00;;;;4936420;28;87590;-70
2021/10/28 00:54:47;;;;;;;8.67;5.53;;;6.30;99.90;6.10;101338.00;;;;4933135;28;116769;-70
2021/10/28 00:57:12;;;;;;;8.93;6.30;;;6.40;99.90;6.10;101349.00;;;;4933645;28;116586;-70
2021/10/28 00:59:38;;;;;;;7.83;5.20;;;6.30;99.90;6.00;101346.00;;;;4950279;28;108266;-70
2021/10/28 01:02:04;;;;;;;9.50;6.10;;;6.20;99.90;6.00;101346.00;;;;4934001;28;108302;-70
2021/10/28 01:04:31;;;;;;;7.20;5.10;;;6.20;99.90;6.00;101358.00;;;;4950313;28;116112;-69
2021/10/28 01:06:58;;;;;;;11.03;6.27;;;6.10;99.90;6.00;101349.00;;;;4936294;28;88389;-69
2021/10/28 01:09:24;;;;;;;10.90;5.83;;;6.10;99.90;5.90;101350.00;;;;4950849;28;87942;-69
2021/10/28 01:11:53;;;;;;;11.40;6.23;;;6.10;99.90;5.90;101349.00;;;;4935083;28;109118;-69
2021/10/28 01:14:21;;;;;;;8.43;5.33;;;6.10;99.90;5.90;101339.00;;;;4950981;28;88443;-69
2021/10/28 01:16:48;;;;;;;8.33;4.97;;;7.40;99.90;5.90;101335.00;;;;4936393;28;87975;-69
2021/10/28 01:19:14;;;;;;;9.67;5.80;;;6.00;99.90;5.80;101333.00;;;;4935543;28;99226;-69
2021/10/28 01:21:40;;;;;;;5.37;4.67;;;6.00;99.90;5.80;101340.00;;;;4937484;28;87812;-70
2021/10/28 01:24:07;;;;;;;7.50;5.33;;;5.90;99.90;5.70;101337.00;;;;4935459;28;98260;-69
2021/10/28 01:26:33;;;;;;;6.97;5.50;;;5.90;99.90;5.70;101341.00;;;;4936273;28;87969;-69
2021/10/28 01:29:02;;;;;;;11.40;6.47;;;5.80;99.90;5.70;101341.00;;;;4951108;28;90430;-69
2021/10/28 01:31:31;;;;;;;8.03;6.43;;;5.80;99.90;5.60;101341.00;;;;4936644;28;87814;-69
2021/10/28 01:33:59;;;;;;;11.40;7.43;;;5.80;99.90;5.60;101344.00;;;;4936909;28;88786;-70
2021/10/28 01:36:26;;;;;;;14.27;7.00;;;5.80;99.90;5.60;101346.00;;;;4935628;28;88827;-69
2021/10/28 01:38:54;;;;;;;10.37;6.03;;;6.00;99.90;5.60;101340.00;;;;4936071;28;87644;-69
2021/10/28 01:41:20;;;;;;;10.67;7.17;;;5.70;99.90;5.50;101344.00;;;;4935903;28;87731;-69
2021/10/28 01:43:46;;;;;;;12.30;6.57;;;5.70;99.90;5.50;101334.00;;;;4936435;28;89095;-69
2021/10/28 01:46:12;;;;;;;12.20;6.47;;;5.70;99.90;5.40;101331.00;;;;4935630;28;88673;-69
2021/10/28 01:48:40;;;;;;;12.40;7.20;;;5.60;99.90;5.40;101327.00;;;;4935796;28;88100;-70
2021/10/28 01:51:08;;;;;;;11.87;8.47;;;5.60;99.90;5.40;101332.00;;;;4936231;28;87598;-69
2021/10/28 01:53:40;;;;;;;16.27;9.33;;;5.50;99.90;5.40;101334.00;;;;4935350;28;96019;-70
2021/10/28 01:56:07;;;;;;;14.33;8.83;;;5.50;99.90;5.40;101330.00;;;;4950560;28;88061;-70
2021/10/28 01:58:33;;;;;;;13.73;8.07;;;5.50;99.90;5.40;101330.00;;;;4936331;28;88445;-70
2021/10/28 02:01:00;;;;;;;14.30;6.93;;;5.60;99.90;5.40;101335.00;;;;4935383;28;89207;-70
2021/10/28 02:03:26;;;;;;;12.00;8.57;;;5.60;99.90;5.30;101321.00;;;;4935801;28;88746;-70
2021/10/28 02:05:52;;;;;;;13.87;9.40;;;5.60;99.90;5.30;101326.00;;;;4936571;28;87731;-71
2021/10/28 02:08:18;;;;;;;14.20;9.57;;;5.50;99.90;5.30;101325.00;;;;4935353;28;88621;-71
2021/10/28 02:10:44;;;;;;;17.30;9.60;;;5.50;99.90;5.30;101333.00;;;;4950706;28;88322;-71
2021/10/28 02:13:10;;;;;;;15.60;10.10;;;5.50;99.90;5.30;101321.00;;;;4936598;28;117192;-71
2021/10/28 02:15:36;;;;;;;19.47;10.43;;;5.90;99.90;5.30;101327.00;;;;4938029;28;88651;-70
2021/10/28 02:18:02;;;;;;;14.67;10.20;;;5.40;99.90;5.20;101320.00;;;;4939367;28;86996;-71
2021/10/28 02:20:27;;;;;;;16.07;11.03;;;5.40;99.90;5.20;101322.00;;;;4938874;28;97317;-71
2021/10/28 02:22:53;;;;;;;12.87;9.90;;;5.40;99.90;5.20;101312.00;;;;4951963;28;100848;-69
2021/10/28 02:25:19;;;;;;;16.70;10.17;;;5.40;99.90;5.20;101312.00;;;;4937362;28;116824;-69
2021/10/28 02:27:46;;;;;;;14.33;9.13;;;5.60;99.90;5.20;101306.00;;;;4938000;28;98164;-71
2021/10/28 02:30:14;;;;;;;18.67;11.43;;;5.50;99.90;5.10;101313.00;;;;4939339;28;87787;-71
2021/10/28 02:32:41;;;;;;;18.37;11.30;;;5.40;99.90;5.10;101316.00;;;;4937002;28;89190;-71
2021/10/28 02:35:07;;;;;;;25.53;13.53;;;5.20;99.90;5.10;101310.00;;;;4952364;28;88244;-70
2021/10/28 02:37:33;;;;;;;18.67;13.20;;;5.30;99.90;5.10;101302.00;;;;4937836;28;88023;-70
2021/10/28 02:39:59;;;;;;;20.47;12.17;;;5.60;99.90;5.10;101302.00;;;;4937543;28;102350;-70
2021/10/28 02:42:25;;;;;;;20.07;12.50;;;5.30;99.90;5.10;101291.00;;;;4952677;28;87547;-70
2021/10/28 02:44:51;;;;;;;16.70;11.13;;;5.30;99.90;5.10;101302.00;;;;4937953;28;87752;-70
2021/10/28 02:47:17;;;;;;;22.10;12.43;;;5.70;99.90;5.10;101300.00;;;;4937317;28;104636;-70
2021/10/28 02:49:43;;;;;;;17.67;12.13;;;5.80;99.90;5.10;101299.00;;;;4937745;28;95411;-70
2021/10/28 02:52:09;;;;;;;15.67;10.93;;;5.30;99.90;5.00;101293.00;;;;4937173;28;88810;-70
2021/10/28 02:54:37;;;;;;;19.17;11.70;;;5.30;99.90;5.00;101306.00;;;;4937466;28;116285;-70
2021/10/28 02:57:06;;;;;;;19.27;12.20;;;5.20;99.90;5.00;101301.00;;;;4937687;28;87898;-70
2021/10/28 02:59:31;;;;;;;14.17;10.37;;;5.20;99.90;4.90;101304.00;;;;4938472;28;87838;-71
2021/10/28 03:01:57;;;;;;;20.07;12.83;;;5.10;99.90;4.90;101306.00;;;;4937284;28;89065;-71
2021/10/28 03:04:24;;;;;;;18.10;11.90;;;5.50;99.90;4.90;101305.00;;;;4937468;28;88670;-71
2021/10/28 03:06:52;;;;;;;19.53;10.53;;;5.10;99.90;4.90;101302.00;;;;4937559;28;87027;-71
2021/10/28 03:09:20;;;;;;;17.60;11.30;;;5.00;99.90;4.80;101299.00;;;;4938048;28;87744;-71
2021/10/28 03:11:49;;;;;;;23.10;12.27;;;5.20;99.90;4.80;101292.00;;;;4937054;28;88733;-71
2021/10/28 03:14:19;;;;;;;20.67;13.33;;;5.10;99.90;4.80;101301.00;;;;4937103;28;88931;-71
2021/10/28 03:27:26;;;;;;;17.67;12.10;;;4.90;99.90;4.70;101302.00;;;;4935134;28;87715;-70
2021/10/28 03:29:52;;;;;;;18.03;10.40;;;5.50;99.90;4.70;101312.00;;;;4951951;28;88143;-70
2021/10/28 03:32:21;;;;;;;16.83;10.10;;;4.90;99.90;4.60;101306.00;;;;4936977;28;113752;-71
2021/10/28 03:34:48;;;;;;;18.97;11.00;;;4.80;99.90;4.60;101300.00;;;;4937566;28;88001;-71
2021/10/28 03:37:24;;;;;;;14.73;10.80;;;4.80;99.90;4.50;101306.00;;;;4951435;28;88023;-70
2021/10/28 03:55:11;;;;;;;17.07;12.33;;;4.50;99.90;4.30;101298.00;;;;4933192;28;108524;-71
2021/10/28 04:16:47;;;;;;;23.97;12.57;;;4.20;99.90;4.00;101297.00;;;;4915737;28;87773;-71
2021/10/28 04:19:31;;;;;;;23.50;11.40;;;4.20;99.90;3.90;101296.00;;;;4921166;28;87937;-71
2021/10/28 04:30:03;;;;;;;21.70;10.90;;;4.00;99.90;3.80;101291.00;;;;4933211;28;87885;-71
2021/10/28 04:32:29;;;;;;;16.57;9.93;;;4.00;99.90;3.70;101289.00;;;;4935633;28;89040;-70
2021/10/28 04:34:55;;;;;;;15.80;9.67;;;4.00;99.90;3.70;101279.00;;;;4933986;28;106824;-71
2021/10/28 04:37:21;;;;;;;17.33;9.20;;;3.90;99.90;3.70;101286.00;;;;4933913;28;88441;-72
2021/10/28 04:39:47;;;;;;;18.27;12.37;;;4.30;99.90;3.60;101284.00;;;;4932751;28;110094;-71
2021/10/28 04:42:13;;;;;;;17.83;11.00;;;3.90;99.90;3.60;101286.00;;;;4932232;28;87961;-71
2021/10/28 04:44:40;;;;;;;24.17;13.60;;;3.80;99.90;3.60;101281.00;;;;4933516;28;88342;-70
2021/10/28 04:47:07;;;;;;;17.13;10.77;;;3.90;99.90;3.60;101284.00;;;;4934660;28;87958;-71
2021/10/28 04:49:32;;;;;;;15.47;10.30;;;3.80;99.90;3.50;101280.00;;;;4936599;28;87820;-71
2021/10/28 04:51:58;;;;;;;16.60;10.73;;;3.70;99.90;3.50;101283.00;;;;4936743;28;87739;-71
2021/10/28 04:54:24;;;;;;;16.87;10.60;;;3.70;99.90;3.40;101289.00;;;;4935585;28;105929;-72
2021/10/28 04:56:50;;;;;;;17.07;9.80;;;3.60;99.90;3.40;101288.00;;;;4924362;28;89397;-70
2021/10/28 04:59:15;;;;;;;17.67;12.20;;;3.60;99.90;3.30;101285.00;;;;4924549;28;87651;-72
2021/10/28 05:01:41;;;;;;;19.93;11.77;;;4.30;99.90;3.30;101292.00;;;;4935576;28;108967;-72
2021/10/28 05:04:07;;;;;;;22.47;11.43;;;3.50;99.90;3.20;101281.00;;;;4935172;28;87869;-72
2021/10/28 05:06:33;;;;;;;16.73;10.97;;;3.50;99.90;3.20;101289.00;;;;4935443;28;117709;-72
2021/10/28 05:08:58;;;;;;;15.17;10.63;;;3.50;99.90;3.10;101281.00;;;;4935474;28;101003;-72
2021/10/28 05:11:26;;;;;;;24.60;11.43;;;3.50;99.90;3.10;101285.00;;;;4916569;28;87817;-72
2021/10/28 05:13:52;;;;;;;20.40;12.30;;;3.90;99.90;3.00;101279.00;;;;4917402;28;87205;-72
2021/10/28 05:16:18;;;;;;;21.57;13.67;;;3.30;99.90;3.00;101287.00;;;;4935705;28;87881;-72
2021/10/28 05:18:45;;;;;;;24.47;13.37;;;3.20;99.90;2.90;101287.00;;;;4934741;28;114722;-72
2021/10/28 05:21:14;;;;;;;18.47;11.30;;;3.40;99.90;2.90;101276.00;;;;4935591;28;88736;-72
2021/10/28 05:23:41;;;;;;;22.13;10.77;;;3.10;99.90;2.80;101279.00;;;;4935711;28;88180;-72
2021/10/28 05:26:08;;;;;;;20.83;11.83;;;3.10;99.90;2.80;101287.00;;;;4935903;28;88095;-72
2021/10/28 05:28:34;;;;;;;14.43;11.00;;;3.10;99.90;2.80;101281.00;;;;4934524;28;87948;-72
2021/10/28 05:31:01;;;;;;;15.27;10.50;;;3.10;99.90;2.80;101274.00;;;;4935863;28;87692;-72
2021/10/28 05:33:27;;;;;;;14.77;9.70;;;3.80;99.90;2.80;101277.00;;;;4934143;28;118495;-72
2021/10/28 05:35:53;;;;;;;15.93;10.27;;;3.00;99.90;2.80;101281.00;;;;4935966;28;88856;-72
2021/10/28 05:38:19;;;;;;;16.17;10.00;;;3.10;99.90;2.80;101279.00;;;;4934974;28;86943;-72
2021/10/28 05:40:45;;;;;;;14.20;9.03;;;3.50;99.90;2.80;101275.00;;;;4950165;28;87804;-73
2021/10/28 05:43:11;;;;;;;14.50;8.43;;;3.00;99.90;2.80;101275.00;;;;4934556;28;117836;-72
2021/10/28 05:45:37;;;;;;;18.57;10.97;;;2.90;99.90;2.80;101275.00;;;;4950185;28;88915;-73
2021/10/28 05:48:04;;;;;;;16.03;10.40;;;3.00;99.90;2.80;101280.00;;;;4949164;28;88021;-72
2021/10/28 05:50:31;;;;;;;18.37;10.30;;;3.00;99.90;2.70;101276.00;;;;4950240;28;87962;-72
2021/10/28 05:52:59;;;;;;;17.10;10.87;;;3.00;99.90;2.70;101278.00;;;;4935128;28;88833;-73
2021/10/28 05:55:26;;;;;;;13.80;9.40;;;2.90;99.90;2.70;101265.00;;;;4934913;28;88954;-73
2021/10/28 05:57:53;;;;;;;12.47;9.63;;;3.00;99.90;2.70;101274.00;;;;4936813;28;87842;-73
2021/10/28 06:00:20;;;;;;;14.27;8.83;;;3.00;99.90;2.70;101283.00;;;;4935751;28;87684;-73
2021/10/28 06:02:46;;;;;;;14.57;10.17;;;2.90;99.90;2.70;101277.00;;;;4950485;28;87474;-73
2021/10/28 06:05:12;;;;;;;17.50;11.33;;;3.00;99.90;2.70;101282.00;;;;4948925;28;116652;-73
2021/10/28 06:07:39;;;;;;;17.47;9.63;;;3.00;99.90;2.70;101272.00;;;;4935251;28;87845;-73
2021/10/28 06:10:06;;;;;;;13.27;10.10;;;3.00;99.90;2.80;101279.00;;;;4935590;28;88571;-72
2021/10/28 06:12:38;;;;;;;14.27;9.77;;;3.00;99.90;2.70;101268.00;;;;4949962;28;87963;-72
2021/10/28 06:15:06;;;;;;;13.43;9.80;;;2.90;99.90;2.70;101279.00;;;;4935948;28;87819;-72
2021/10/28 06:17:35;;;;;;;12.50;9.10;;;3.00;99.90;2.70;101275.00;;;;4950329;28;87725;-72
2021/10/28 06:20:02;;;;;;;16.83;10.07;;;2.90;99.90;2.70;101280.00;;;;4935918;28;87913;-72
2021/10/28 06:22:28;;;;;;;16.70;9.50;;;2.90;99.90;2.70;101276.00;;;;4934853;28;88434;-72
2021/10/28 06:24:55;;;;;;;21.00;11.40;;;3.00;99.90;2.80;101279.00;;;;4935692;28;88607;-73
2021/10/28 06:27:22;;;;;;;24.93;13.67;;;3.00;99.90;2.80;101279.00;;;;4949402;28;96369;-72
2021/10/28 06:29:47;;;;;;;27.93;15.57;;;3.00;99.90;2.80;101279.00;;;;4934664;28;87720;-72
2021/10/28 06:32:14;;;;;;;25.93;15.27;;;3.00;99.90;2.80;101275.00;;;;4947694;28;117707;-71
2021/10/28 06:34:43;;;;;;;54.70;31.77;;;3.00;99.90;2.80;101263.00;;;;4933906;28;89214;-71
2021/10/28 06:37:10;;;;;;;72.57;38.30;;;3.10;99.90;2.90;101267.00;;;;4934611;28;87633;-71
2021/10/28 06:39:37;;;;;;;76.60;37.63;;;3.10;99.90;3.00;101270.00;;;;4935180;28;88147;-72
2021/10/28 06:42:05;;;;;;;65.17;34.73;;;3.80;99.90;3.00;101289.00;;;;4948688;28;88578;-72
2021/10/28 06:44:30;;;;;;;75.53;37.43;;;3.20;99.90;3.20;101273.00;;;;4934881;28;87924;-71
2021/10/28 06:46:56;;;;;;;66.80;32.77;;;3.30;99.90;3.30;101280.00;;;;4934134;28;112398;-72
2021/10/28 06:49:23;;;;;;;61.40;31.67;;;3.40;99.90;3.50;101280.00;;;;4935802;28;87861;-71
2021/10/28 06:51:49;;;;;;;60.83;28.10;;;4.30;99.90;3.70;101279.00;;;;4934571;28;88776;-71
2021/10/28 06:57:16;;;;;;;83.57;40.33;;;4.50;99.90;4.20;101288.00;;;;4934436;28;88042;-72
2021/10/28 07:04:57;;;;;;;39.03;24.07;;;5.00;99.90;5.30;101286.00;;;;4934906;28;87807;-71
2021/10/28 07:07:30;;;;;;;37.97;21.03;;;5.40;99.90;5.70;101285.00;;;;4937965;28;88098;-71
2021/10/28 07:10:18;;;;;;;27.20;15.30;;;5.60;99.90;6.00;101288.00;;;;4951763;28;87799;-71
2021/10/28 07:12:53;;;;;;;21.07;11.30;;;6.00;99.90;6.30;101283.00;;;;4935062;28;90051;-71
2021/10/28 07:15:42;;;;;;;20.23;11.17;;;6.30;99.90;6.60;101285.00;;;;4937262;28;87988;-71
2021/10/28 07:56:06;;;;;;;13.83;7.37;;;11.30;99.90;11.80;101282.00;;;;4935462;28;87847;-69
2021/10/28 08:14:52;;;;;;;18.80;9.83;;;13.60;99.90;14.30;101266.00;;;;4931923;28;87866;-68
2021/10/28 08:18:28;;;;;;;20.43;11.20;;;14.00;99.90;14.60;101267.00;;;;4936928;28;88095;-68
2021/10/28 08:20:45;;;;;;;15.50;8.33;;;14.40;99.90;14.90;101258.00;;;;4929927;28;89213;-71
2021/10/28 08:23:05;;;;;;;15.20;9.37;;;14.70;99.90;15.10;101266.00;;;;4948613;28;87802;-67
2021/10/28 08:31:01;;;;;;;12.10;6.80;;;15.30;99.90;15.70;101262.00;;;;4947866;28;87749;-68
2021/10/28 08:33:27;;;;;;;10.00;6.43;;;15.50;99.90;15.80;101260.00;;;;4936483;28;110142;-67
2021/10/28 08:35:56;;;;;;;13.60;7.43;;;15.60;99.80;16.00;101255.00;;;;4936857;28;109126;-68
2021/10/28 08:38:22;;;;;;;10.75;7.22;;;15.80;99.50;16.20;101253.00;;;;4936966;28;87782;-68
2021/10/28 08:40:52;;;;;;;8.43;6.10;;;15.90;98.70;16.40;101258.00;;;;4937189;28;88449;-68
2021/10/28 08:43:20;;;;;;;9.40;6.50;;;16.10;97.90;16.60;101261.00;;;;4936984;28;87906;-68
2021/10/28 08:45:46;;;;;;;10.68;7.45;;;16.30;97.20;16.80;101253.00;;;;4937498;28;89028;-67
2021/10/28 08:48:12;;;;;;;10.75;7.68;;;16.50;96.80;17.10;101249.00;;;;4951537;28;117818;-68
2021/10/28 08:50:47;;;;;;;12.68;7.97;;;16.70;96.50;17.30;101247.00;;;;4936911;28;88048;-68
2021/10/28 09:19:32;;;;;;;18.25;8.18;;;17.70;93.10;18.30;101247.00;;;;4935414;28;87742;-70
2021/10/28 09:24:24;;;;;;;10.45;5.88;;;20.30;86.80;21.20;101224.00;;;;4944876;28;88012;-70
2021/10/28 09:27:12;;;;;;;5.97;5.35;;;20.70;84.50;21.50;101229.00;;;;4934442;28;87915;-70
2021/10/28 09:29:52;;;;;;;8.95;6.10;;;21.10;82.80;21.80;101222.00;;;;4934826;28;88501;-70
2021/10/28 09:32:34;;;;;;;10.35;5.90;;;21.40;81.00;22.20;101224.00;;;;4935928;28;87478;-72
2021/10/28 09:35:32;;;;;;;8.40;6.47;;;21.70;79.40;22.40;101225.00;;;;4935426;28;87925;-74
2021/10/28 09:43:35;;;;;;;8.32;4.95;;;22.20;75.90;23.00;101221.00;;;;4945649;28;88657;-73
2021/10/28 09:44:19;;;;;;;9.25;5.47;;;22.60;74.30;23.30;101227.00;;;;4938511;28;87888;-73
2021/10/28 09:46:50;;;;;;;7.05;4.82;;;22.80;72.80;23.60;101224.00;;;;4934452;28;88378;-73
2021/10/28 09:52:11;;;;;;;6.40;4.72;;;23.40;70.20;24.10;101219.00;;;;4935973;28;87854;-72
2021/10/28 10:00:14;;;;;;;8.15;4.88;;;23.80;62.10;24.00;101206.00;;;;4946272;28;87060;-73
2021/10/28 10:02:55;;;;;;;7.00;4.95;;;23.70;57.50;23.80;101218.00;;;;4936134;28;87738;-71
2021/10/28 10:05:26;;;;;;;7.00;3.70;;;23.50;57.00;23.60;101213.00;;;;4935478;28;88909;-73
2021/10/28 10:07:58;;;;;;;9.25;4.72;;;23.30;56.10;23.50;101205.00;;;;4949425;28;88866;-73
2021/10/28 10:10:28;;;;;;;8.65;4.35;;;23.20;56.10;23.40;101209.00;;;;4934286;28;87957;-72
2021/10/28 10:12:56;;;;;;;4.80;4.10;;;23.10;54.60;23.30;101210.00;;;;4935675;28;87696;-74
2021/10/28 10:15:23;;;;;;;5.63;4.15;;;23.00;55.70;23.50;101207.00;;;;4935136;28;87656;-74
2021/10/28 10:17:57;;;;;;;4.18;3.78;;;23.00;56.60;23.70;101206.00;;;;4934172;28;90307;-72
2021/10/28 10:20:35;;;;;;;4.85;3.50;;;23.20;55.50;23.80;101205.00;;;;4950327;28;88047;-71
2021/10/28 11:29:24;;;;;;;7.22;3.58;;;21.00;51.00;21.40;101153.00;;;;4947634;28;88053;-71
2021/10/28 11:32:29;;;;;;;5.50;3.25;;;21.00;51.30;21.40;101151.00;;;;4935532;28;88837;-71
2021/10/28 12:01:32;;;;;;;5.78;3.30;;;21.00;50.80;21.30;101146.00;;;;4937435;28;88277;-71
2021/10/28 12:45:59;;;;;;;2.00;1.70;;;20.70;48.10;21.00;101062.00;;;;4935300;28;87714;-72
2021/10/28 13:02:58;;;;;;;2.15;1.92;;;20.50;48.70;20.70;101051.00;;;;4922377;28;87674;-71
2021/10/28 13:06:11;;;;;;;3.45;2.55;;;20.40;49.30;20.60;101055.00;;;;4933360;28;90386;-71
2021/10/28 14:17:44;;;;;;;6.75;4.57;;;17.10;54.60;17.00;101011.00;;;;4950424;28;87914;-71
2021/10/28 14:30:12;;;;;;;15.65;8.10;;;16.50;57.20;16.50;100992.00;;;;4937071;28;87938;-73
2021/10/28 15:35:36;;;;;;;9.40;7.40;;;14.50;68.10;14.40;100957.00;;;;4932164;28;87561;-72
2021/10/28 15:38:20;;;;;;;7.60;6.20;;;14.40;69.60;14.30;100957.00;;;;4934205;28;88075;-70
2021/10/28 15:49:40;;;;;;;8.70;5.30;;;13.90;71.80;13.80;100950.00;;;;4933948;28;88039;-67
2021/10/28 15:52:16;;;;;;;10.03;6.27;;;13.80;72.50;13.70;100943.00;;;;4933905;28;87795;-67
2021/10/28 15:59:55;;;;;;;9.87;6.47;;;13.40;76.10;13.20;100940.00;;;;4932081;28;87273;-67
2021/10/28 16:24:09;;;;;;;15.40;7.87;;;12.40;88.70;12.30;100918.00;;;;4930772;28;87928;-68
2021/10/28 16:26:36;;;;;;;10.43;7.30;;;12.30;89.90;12.30;100908.00;;;;4932795;28;109999;-67
2021/10/28 16:29:06;;;;;;;6.73;4.50;;;12.30;90.30;12.20;100910.00;;;;4933426;28;88030;-67
2021/10/28 16:31:32;;;;;;;13.10;8.87;;;12.30;90.60;12.20;100902.00;;;;4933258;28;88960;-67
2021/10/28 16:33:58;;;;;;;9.23;5.80;;;12.20;90.90;12.10;100901.00;;;;4932376;28;88832;-69
2021/10/28 16:36:25;;;;;;;7.50;5.33;;;12.20;91.40;12.10;100897.00;;;;4932046;28;111816;-67
2021/10/28 16:38:52;;;;;;;8.40;5.03;;;12.10;91.50;12.00;100893.00;;;;4934788;28;87962;-68
2021/10/28 16:41:18;;;;;;;26.17;14.97;;;12.10;91.70;11.90;100888.00;;;;4933061;28;89189;-68
2021/10/28 16:43:44;;;;;;;16.83;10.40;;;12.00;91.70;11.80;100891.00;;;;4947307;28;88770;-68
2021/10/28 16:46:10;;;;;;;8.73;5.23;;;11.90;91.80;11.70;100883.00;;;;4931448;28;114041;-67
2021/10/28 16:48:36;;;;;;;6.03;4.80;;;11.80;92.10;11.60;100890.00;;;;4930197;28;106126;-68
2021/10/28 16:51:03;;;;;;;7.47;4.73;;;11.70;92.40;11.60;100893.00;;;;4908080;28;89748;-68
2021/10/28 16:53:29;;;;;;;7.57;4.47;;;11.60;92.70;11.50;100886.00;;;;4932289;28;87825;-67
2021/10/28 16:55:55;;;;;;;8.90;5.47;;;11.50;93.20;11.50;100884.00;;;;4932497;28;87923;-68
2021/10/28 16:58:21;;;;;;;8.13;4.73;;;11.50;93.60;11.40;100887.00;;;;4932275;28;106168;-68
2021/10/28 17:00:48;;;;;;;101.93;59.97;;;11.50;94.10;11.40;100877.00;;;;4947333;28;89513;-67
2021/10/28 17:03:15;;;;;;;32.00;23.60;;;11.40;94.10;11.30;100888.00;;;;4932692;28;88043;-68
2021/10/28 17:05:41;;;;;;;70.17;45.77;;;11.40;94.20;11.20;100889.00;;;;4932281;28;87623;-67
2021/10/28 17:08:06;;;;;;;21.13;13.60;;;11.30;94.30;11.10;100887.00;;;;4947007;28;87780;-67
2021/10/28 17:10:32;;;;;;;13.43;10.50;;;11.10;94.50;11.00;100884.00;;;;4930923;28;105043;-69
2021/10/28 17:12:58;;;;;;;14.97;9.30;;;11.10;94.90;10.90;100884.00;;;;4932173;28;88847;-68
2021/10/28 17:15:24;;;;;;;118.17;64.57;;;11.00;95.10;10.90;100889.00;;;;4931821;28;109273;-67
2021/10/28 17:17:50;;;;;;;29.53;17.47;;;10.90;95.50;10.80;100880.00;;;;4932502;28;87890;-68
2021/10/28 17:20:18;;;;;;;10.63;7.80;;;10.90;95.70;10.80;100884.00;;;;4931509;28;99159;-69
2021/10/28 17:22:43;;;;;;;337.27;187.43;;;10.80;95.80;10.70;100882.00;;;;4932069;28;89127;-67
2021/10/28 17:25:17;;;;;;;151.93;78.40;;;10.80;95.90;10.60;100892.00;;;;4930680;28;87929;-67
2021/10/28 17:27:47;;;;;;;34.17;18.80;;;10.70;96.10;10.50;100888.00;;;;4930703;28;87957;-67
2021/10/28 17:30:15;;;;;;;21.10;13.37;;;10.60;96.40;10.40;100884.00;;;;4929909;28;88854;-67
2021/10/28 17:32:42;;;;;;;20.70;11.67;;;10.50;96.60;10.30;100886.00;;;;4931581;28;104883;-67
2021/10/28 17:35:09;;;;;;;12.57;7.97;;;10.40;96.80;10.20;100877.00;;;;4931568;28;87801;-67
2021/10/28 17:37:35;;;;;;;12.23;7.97;;;10.30;97.00;10.10;100891.00;;;;4932300;28;87721;-67
2021/10/28 17:40:02;;;;;;;8.73;6.27;;;10.20;97.30;10.00;100872.00;;;;4931931;28;88442;-67
2021/10/28 17:42:28;;;;;;;25.33;14.93;;;10.10;97.50;9.90;100879.00;;;;4932486;28;87807;-68
2021/10/28 17:44:57;;;;;;;8.13;5.83;;;10.00;97.80;9.70;100873.00;;;;4931580;28;87800;-68
2021/10/28 17:47:26;;;;;;;9.47;6.00;;;9.80;98.10;9.70;100868.00;;;;4932471;28;88999;-68
2021/10/28 17:49:53;;;;;;;7.63;5.40;;;9.80;98.60;9.50;100876.00;;;;4931633;28;87921;-67
2021/10/28 17:52:19;;;;;;;8.40;5.97;;;9.60;98.90;9.40;100872.00;;;;4925997;28;88224;-68
2021/10/28 17:54:46;;;;;;;9.33;5.27;;;9.20;99.10;9.30;100871.00;;;;4931982;28;87852;-68
2021/10/28 17:57:13;;;;;;;7.03;4.97;;;9.40;99.60;9.10;100872.00;;;;4931944;28;94065;-68
2021/10/28 17:59:42;;;;;;;13.77;5.57;;;9.20;99.90;9.00;100880.00;;;;4932094;28;87797;-68
2021/10/28 18:02:08;;;;;;;10.33;5.13;;;9.20;99.90;8.90;100873.00;;;;4932681;28;87652;-68
2021/10/28 18:04:35;;;;;;;4.63;3.87;;;9.00;99.90;8.70;100869.00;;;;4932843;28;87070;-67
2021/10/28 18:07:01;;;;;;;7.93;5.10;;;8.90;99.90;8.60;100862.00;;;;4932132;28;88249;-68
2021/10/28 18:09:27;;;;;;;7.60;5.23;;;8.80;99.90;8.50;100871.00;;;;4931797;28;88711;-68
2021/10/28 18:11:55;;;;;;;6.93;5.50;;;8.60;99.90;8.50;100871.00;;;;4931872;28;88890;-67
2021/10/28 18:14:25;;;;;;;7.00;5.77;;;8.60;99.90;8.40;100865.00;;;;4932041;28;88083;-67
2021/10/28 18:16:51;;;;;;;5.80;4.27;;;8.50;99.90;8.30;100868.00;;;;4932299;28;87861;-68
2021/10/28 18:19:17;;;;;;;8.87;4.97;;;8.50;99.90;8.30;100871.00;;;;4931083;28;117760;-68
2021/10/28 18:21:45;;;;;;;6.73;4.10;;;8.40;99.90;8.20;100866.00;;;;4931346;28;106814;-68
2021/10/28 18:24:12;;;;;;;8.03;5.30;;;8.30;99.90;8.10;100851.00;;;;4931647;28;87674;-68
2021/10/28 18:26:39;;;;;;;7.00;5.37;;;8.30;99.90;8.10;100860.00;;;;4931929;28;88165;-68
2021/10/28 18:29:05;;;;;;;5.70;4.57;;;8.30;99.90;8.00;100859.00;;;;4932291;28;87382;-68
2021/10/28 18:31:31;;;;;;;11.00;7.73;;;8.20;99.90;8.00;100857.00;;;;4931318;28;88633;-67
2021/10/28 18:34:00;;;;;;;6.70;5.63;;;8.10;99.90;7.90;100862.00;;;;4931547;28;88618;-67
2021/10/28 18:36:27;;;;;;;7.10;5.50;;;8.10;99.90;7.90;100858.00;;;;4931510;28;89054;-67
2021/10/28 18:38:54;;;;;;;8.33;6.20;;;8.00;99.90;7.80;100853.00;;;;4931136;28;87924;-68
2021/10/28 18:41:20;;;;;;;8.67;5.57;;;7.90;99.90;7.70;100853.00;;;;4945584;28;88119;-68
2021/10/28 18:43:47;;;;;;;8.50;5.33;;;7.90;99.90;7.70;100853.00;;;;4932402;28;87936;-67
2021/10/28 18:46:21;;;;;;;9.17;5.27;;;7.80;99.90;7.70;100848.00;;;;4927804;28;87975;-68
2021/10/28 18:48:57;;;;;;;10.63;6.47;;;7.70;99.90;7.70;100846.00;;;;4932318;28;88983;-67
2021/10/28 18:51:25;;;;;;;9.10;5.77;;;7.70;99.90;7.60;100844.00;;;;4925505;28;88300;-67
2021/10/28 18:53:51;;;;;;;10.87;6.80;;;7.70;99.90;7.60;100844.00;;;;4932119;28;87276;-67
2021/10/28 18:56:18;;;;;;;11.90;7.33;;;7.70;99.90;7.70;100848.00;;;;4934341;28;87743;-67
2021/10/28 18:58:45;;;;;;;12.43;7.30;;;7.70;99.90;7.70;100845.00;;;;4934996;28;87995;-67
2021/10/28 19:01:15;;;;;;;8.27;6.80;;;7.90;99.90;7.80;100849.00;;;;4934237;28;88725;-68
2021/10/28 19:03:43;;;;;;;13.87;7.10;;;7.80;99.90;7.80;100844.00;;;;4934962;28;87567;-67
2021/10/28 19:06:11;;;;;;;9.33;7.70;;;7.90;99.90;7.90;100848.00;;;;4934052;28;87765;-67
2021/10/28 19:08:42;;;;;;;9.90;6.87;;;8.10;99.90;7.90;100833.00;;;;4936301;28;88103;-68
2021/10/28 19:11:11;;;;;;;19.57;7.93;;;8.00;99.90;8.00;100836.00;;;;4938126;28;88149;-68
2021/10/28 19:13:40;;;;;;;10.60;7.57;;;8.00;99.90;8.00;100829.00;;;;4952531;28;87779;-68